createdAt,value
2023-04-25T00:01:05.385Z,100.00
2023-04-25T00:03:52.129Z,100.00
2023-04-25T00:06:41.055Z,99.98
2023-04-25T00:09:28.703Z,99.75
2023-04-25T00:12:16.077Z,99.85
2023-04-25T00:15:03.485Z,99.96
2023-04-25T00:17:53.482Z,99.91
2023-04-25T00:20:42.497Z,99.97
2023-04-25T00:23:29.412Z,99.85
2023-04-25T00:26:15.990Z,99.91
2023-04-25T00:29:03.388Z,99.92
2023-04-25T00:31:50.216Z,100.00
2023-04-25T00:34:36.872Z,100.00
2023-04-25T00:37:23.797Z,99.95
2023-04-25T00:40:10.952Z,99.61
2023-04-25T00:42:57.845Z,99.07
2023-04-25T00:45:47.819Z,98.67
2023-04-25T00:48:34.600Z,98.44
2023-04-25T00:51:22.541Z,98.57
2023-04-25T00:54:12.921Z,98.84
2023-04-25T00:57:01.361Z,98.52
2023-04-25T00:59:48.537Z,98.65
2023-04-25T01:02:36.386Z,98.60
2023-04-25T01:05:23.468Z,98.95
2023-04-25T01:08:10.925Z,99.45
2023-04-25T01:10:57.680Z,99.31
2023-04-25T01:13:44.783Z,99.70
2023-04-25T01:16:33.669Z,99.91
2023-04-25T01:19:20.651Z,100.00
2023-04-25T01:22:07.493Z,100.00
2023-04-25T01:24:54.135Z,100.00
2023-04-25T01:27:41.304Z,100.00
2023-04-25T01:30:30.249Z,100.00
2023-04-25T01:33:17.648Z,100.00
2023-04-25T01:36:05.443Z,100.00
2023-04-25T01:38:52.785Z,100.00
2023-04-25T01:41:39.400Z,100.00
2023-04-25T01:44:26.742Z,100.00
2023-04-25T01:47:13.948Z,100.00
2023-04-25T01:50:00.632Z,100.00
2023-04-25T01:52:50.035Z,100.00
2023-04-25T01:55:36.848Z,100.00
2023-04-25T01:58:29.853Z,100.00
2023-04-25T02:01:32.994Z,100.00
2023-04-25T02:04:32.182Z,100.00
2023-04-25T02:07:19.487Z,100.00
2023-04-25T02:10:13.733Z,100.00
2023-04-25T02:13:15.629Z,100.00
2023-04-25T02:16:17.800Z,100.00
2023-04-25T02:19:05.585Z,100.00
2023-04-25T02:21:52.696Z,100.00
2023-04-25T02:24:40.679Z,100.00
2023-04-25T02:27:27.392Z,100.00
2023-04-25T02:30:14.296Z,100.00
2023-04-25T02:33:01.330Z,100.00
2023-04-25T02:35:50.098Z,100.00
2023-04-25T02:38:36.971Z,100.00
2023-04-25T02:41:24.100Z,100.00
2023-04-25T02:44:10.788Z,100.00
2023-04-25T02:46:58.437Z,100.00
2023-04-25T02:49:46.014Z,100.00
2023-04-25T02:52:32.614Z,100.00
2023-04-25T02:55:28.307Z,100.00
2023-04-25T02:58:16.032Z,100.00
2023-04-25T03:01:10.136Z,100.00
2023-04-25T03:03:57.242Z,100.00
2023-04-25T03:06:44.749Z,100.00
2023-04-25T03:09:33.528Z,100.00
2023-04-25T03:12:20.229Z,100.00
2023-04-25T03:15:07.721Z,100.00
2023-04-25T03:17:54.968Z,100.00
2023-04-25T03:20:43.422Z,100.00
2023-04-25T03:23:30.844Z,98.98
2023-04-25T03:26:18.669Z,97.91
2023-04-25T03:29:05.872Z,97.84
2023-04-25T03:31:54.309Z,96.02
2023-04-25T03:34:41.864Z,95.75
2023-04-25T03:37:29.600Z,94.56
2023-04-25T03:40:16.424Z,94.18
2023-04-25T03:43:31.817Z,93.53
2023-04-25T03:46:22.019Z,93.53
2023-04-25T03:49:08.591Z,93.90
2023-04-25T03:52:11.831Z,94.33
2023-04-25T03:54:59.463Z,94.60
2023-04-25T03:57:46.340Z,94.96
2023-04-25T04:00:33.130Z,95.30
2023-04-25T04:03:22.172Z,95.93
2023-04-25T04:06:10.693Z,96.25
2023-04-25T04:09:00.563Z,95.83
2023-04-25T04:11:48.689Z,96.13
2023-04-25T04:14:35.909Z,96.25
2023-04-25T04:17:22.680Z,96.25
2023-04-25T04:20:10.349Z,96.43
2023-04-25T04:22:58.722Z,96.57
2023-04-25T04:25:47.340Z,96.21
2023-04-25T04:28:56.792Z,96.69
2023-04-25T04:32:01.629Z,96.40
2023-04-25T04:34:49.547Z,96.24
2023-04-25T04:37:37.359Z,96.20
2023-04-25T04:40:25.929Z,95.97
2023-04-25T04:43:24.893Z,95.79
2023-04-25T04:46:22.356Z,95.76
2023-04-25T04:49:31.763Z,95.53
2023-04-25T04:52:48.886Z,95.15
2023-04-25T04:55:58.292Z,94.78
2023-04-25T04:59:13.809Z,94.66
2023-04-25T05:02:07.745Z,95.15
2023-04-25T05:05:09.566Z,94.83
2023-04-25T05:08:09.910Z,95.13
2023-04-25T05:11:26.361Z,95.03
2023-04-25T05:14:24.495Z,94.72
2023-04-25T05:17:33.293Z,94.61
2023-04-25T05:20:37.740Z,94.25
2023-04-25T05:23:43.960Z,94.76
2023-04-25T05:26:50.669Z,95.20
2023-04-25T05:29:55.404Z,94.25
2023-04-25T05:32:48.883Z,93.08
2023-04-25T05:35:35.429Z,92.17
2023-04-25T05:38:22.126Z,91.97
2023-04-25T05:41:32.071Z,90.50
2023-04-25T05:44:22.305Z,89.10
2023-04-25T05:47:29.218Z,88.36
2023-04-25T05:50:33.531Z,87.39
2023-04-25T05:53:24.176Z,86.17
2023-04-25T05:56:19.519Z,85.55
2023-04-25T05:59:08.124Z,85.73
2023-04-25T06:01:56.321Z,85.52
2023-04-25T06:04:43.163Z,85.69
2023-04-25T06:07:31.838Z,86.10
2023-04-25T06:10:18.841Z,86.15
2023-04-25T06:13:06.154Z,86.18
2023-04-25T06:15:54.038Z,86.54
2023-04-25T06:18:40.568Z,86.51
2023-04-25T06:21:27.844Z,87.30
2023-04-25T06:24:14.558Z,87.87
2023-04-25T06:27:01.601Z,88.31
2023-04-25T06:29:50.148Z,88.50
2023-04-25T06:32:37.364Z,89.25
2023-04-25T06:35:24.182Z,89.70
2023-04-25T06:38:10.845Z,89.97
2023-04-25T06:40:58.236Z,90.31
2023-04-25T06:43:45.588Z,90.35
2023-04-25T06:46:48.714Z,90.42
2023-04-25T06:49:35.646Z,90.47
2023-04-25T06:52:22.817Z,90.91
2023-04-25T06:55:10.088Z,90.34
2023-04-25T06:58:12.616Z,90.03
2023-04-25T07:01:11.410Z,89.20
2023-04-25T07:03:58.413Z,89.44
2023-04-25T07:06:47.755Z,89.36
2023-04-25T07:09:36.561Z,89.17
2023-04-25T07:12:23.423Z,88.20
2023-04-25T07:15:12.022Z,88.19
2023-04-25T07:18:00.452Z,88.21
2023-04-25T07:20:47.420Z,87.45
2023-04-25T07:23:34.250Z,86.92
2023-04-25T07:26:23.306Z,86.33
2023-04-25T07:29:30.756Z,86.72
2023-04-25T07:32:19.245Z,86.71
2023-04-25T07:35:08.237Z,86.38
2023-04-25T07:37:55.584Z,86.55
2023-04-25T07:40:43.578Z,85.48
2023-04-25T07:43:33.908Z,85.47
2023-04-25T07:46:20.478Z,83.17
2023-04-25T07:49:08.575Z,81.01
2023-04-25T07:51:55.484Z,80.04
2023-04-25T07:54:43.492Z,76.58
2023-04-25T07:57:35.431Z,75.30
2023-04-25T08:00:23.393Z,74.92
2023-04-25T08:03:11.141Z,74.02
2023-04-25T08:05:58.263Z,71.68
2023-04-25T08:08:46.069Z,71.19
2023-04-25T08:11:33.907Z,69.90
2023-04-25T08:14:20.897Z,70.33
2023-04-25T08:17:08.507Z,69.49
2023-04-25T08:19:59.970Z,69.02
2023-04-25T08:22:49.260Z,69.85
2023-04-25T08:25:55.889Z,70.52
2023-04-25T08:28:44.766Z,70.75
2023-04-25T08:31:32.484Z,70.54
2023-04-25T08:34:21.102Z,71.02
2023-04-25T08:37:10.353Z,71.68
2023-04-25T08:40:07.521Z,71.42
2023-04-25T08:43:11.691Z,71.11
2023-04-25T08:46:02.086Z,70.91
2023-04-25T08:49:02.789Z,70.96
2023-04-25T08:51:52.135Z,70.38
2023-04-25T08:54:48.944Z,70.82
2023-04-25T08:57:36.337Z,70.58
2023-04-25T09:00:23.336Z,69.98
2023-04-25T09:03:11.283Z,69.36
2023-04-25T09:05:58.478Z,68.18
2023-04-25T09:08:44.889Z,68.43
2023-04-25T09:11:33.011Z,68.71
2023-04-25T09:14:23.485Z,69.37
2023-04-25T09:17:20.458Z,70.27
2023-04-25T09:20:14.262Z,69.76
2023-04-25T09:23:07.015Z,69.95
2023-04-25T09:25:55.376Z,69.18
2023-04-25T09:28:43.491Z,69.73
2023-04-25T09:31:30.161Z,68.73
2023-04-25T09:34:21.484Z,68.55
2023-04-25T09:37:21.846Z,68.03
2023-04-25T09:40:26.988Z,65.44
2023-04-25T09:43:25.392Z,65.92
2023-04-25T09:46:12.235Z,64.38
2023-04-25T09:49:08.555Z,64.19
2023-04-25T09:52:04.641Z,64.60
2023-04-25T09:54:57.578Z,65.13
2023-04-25T09:57:55.081Z,64.39
2023-04-25T10:00:41.716Z,64.38
2023-04-25T10:03:36.282Z,64.78
2023-04-25T10:06:56.339Z,65.46
2023-04-25T10:09:46.101Z,65.76
2023-04-25T10:12:34.586Z,65.49
2023-04-25T10:15:22.875Z,64.92
2023-04-25T10:18:10.066Z,65.53
2023-04-25T10:21:02.270Z,66.27
2023-04-25T10:23:50.168Z,67.27
2023-04-25T10:26:36.672Z,67.47
2023-04-25T10:29:25.461Z,68.13
2023-04-25T10:32:12.412Z,68.50
2023-04-25T10:35:24.818Z,68.60
2023-04-25T10:38:14.774Z,68.17
2023-04-25T10:41:08.673Z,68.40
2023-04-25T10:44:03.836Z,68.25
2023-04-25T10:46:50.735Z,67.88
2023-04-25T10:49:43.163Z,67.39
2023-04-25T10:52:30.212Z,67.49
2023-04-25T10:55:16.800Z,67.32
2023-04-25T10:58:04.057Z,66.35
2023-04-25T11:03:44.664Z,64.96
2023-04-25T11:06:58.142Z,65.27
2023-04-25T11:09:50.671Z,64.48
2023-04-25T11:12:37.293Z,64.12
2023-04-25T11:15:25.484Z,63.27
2023-04-25T11:18:17.512Z,63.29
2023-04-25T11:21:04.378Z,62.89
2023-04-25T11:23:50.745Z,62.68
2023-04-25T11:26:38.015Z,62.54
2023-04-25T11:29:28.519Z,61.93
2023-04-25T11:32:19.793Z,62.47
2023-04-25T11:35:08.952Z,62.41
2023-04-25T11:37:56.892Z,62.22
2023-04-25T11:40:43.268Z,63.05
2023-04-25T11:43:29.436Z,63.57
2023-04-25T11:46:16.387Z,64.55
2023-04-25T11:49:05.699Z,65.19
2023-04-25T11:51:52.660Z,65.74
2023-04-25T11:54:39.045Z,66.45
2023-04-25T11:57:25.745Z,66.75
2023-04-25T12:00:18.692Z,67.30
2023-04-25T12:03:09.999Z,67.28
2023-04-25T12:06:04.423Z,67.55
2023-04-25T12:09:01.204Z,67.43
2023-04-25T12:11:49.703Z,68.18
2023-04-25T12:14:37.262Z,68.44
2023-04-25T12:17:23.840Z,68.76
2023-04-25T12:20:14.053Z,69.00
2023-04-25T12:23:00.774Z,68.90
2023-04-25T12:25:47.802Z,69.07
2023-04-25T12:28:34.789Z,69.05
2023-04-25T12:31:21.743Z,68.67
2023-04-25T12:34:08.652Z,68.29
2023-04-25T12:36:55.197Z,68.20
2023-04-25T12:39:41.862Z,68.11
2023-04-25T12:42:28.439Z,67.77
2023-04-25T12:45:16.269Z,68.09
2023-04-25T12:48:04.137Z,67.47
2023-04-25T12:50:52.385Z,67.40
2023-04-25T12:53:41.148Z,66.97
2023-04-25T12:56:28.265Z,66.73
2023-04-25T12:59:15.030Z,66.14
2023-04-25T13:02:02.227Z,66.69
2023-04-25T13:04:49.042Z,66.58
2023-04-25T13:07:36.099Z,65.38
2023-04-25T13:10:23.195Z,64.86
2023-04-25T13:13:10.055Z,65.08
2023-04-25T13:15:58.570Z,64.83
2023-04-25T13:18:45.499Z,64.30
2023-04-25T13:21:32.927Z,62.98
2023-04-25T13:24:19.313Z,62.20
2023-04-25T13:27:05.677Z,60.98
2023-04-25T13:29:53.075Z,59.79
2023-04-25T13:32:40.453Z,59.74
2023-04-25T13:35:27.010Z,59.45
2023-04-25T13:38:14.527Z,58.90
2023-04-25T13:41:01.470Z,58.91
2023-04-25T13:43:48.022Z,58.13
2023-04-25T13:46:46.478Z,56.05
2023-04-25T13:49:35.233Z,56.89
2023-04-25T13:52:21.873Z,55.80
2023-04-25T13:55:09.976Z,56.43
2023-04-25T13:57:56.829Z,56.53
2023-04-25T14:00:45.847Z,57.03
2023-04-25T14:03:32.673Z,57.01
2023-04-25T14:06:23.263Z,58.27
2023-04-25T14:09:10.836Z,59.14
2023-04-25T14:11:57.614Z,60.52
2023-04-25T14:14:44.343Z,61.10
2023-04-25T14:17:32.890Z,61.79
2023-04-25T14:20:21.687Z,62.58
2023-04-25T14:23:08.647Z,63.11
2023-04-25T14:25:55.433Z,64.12
2023-04-25T14:28:41.831Z,64.91
2023-04-25T14:31:29.664Z,65.35
2023-04-25T14:34:16.514Z,66.15
2023-04-25T14:37:05.122Z,67.04
2023-04-25T14:39:52.212Z,67.34
2023-04-25T14:42:40.699Z,67.83
2023-04-25T14:45:29.166Z,67.78
2023-04-25T14:48:18.545Z,67.50
2023-04-25T14:51:07.447Z,67.31
2023-04-25T14:53:56.815Z,65.05
2023-04-25T14:56:43.314Z,64.03
2023-04-25T14:59:30.896Z,63.39
2023-04-25T15:02:18.369Z,63.50
2023-04-25T15:05:06.241Z,63.27
2023-04-25T15:07:53.992Z,62.95
2023-04-25T15:10:40.302Z,63.15
2023-04-25T15:13:29.153Z,63.39
2023-04-25T15:16:16.051Z,63.79
2023-04-25T15:19:06.212Z,63.82
2023-04-25T15:21:52.804Z,63.85
2023-04-25T15:24:39.733Z,64.28
2023-04-25T15:27:28.917Z,64.47
2023-04-25T15:30:20.405Z,64.47
2023-04-25T15:33:06.930Z,64.67
2023-04-25T15:35:53.700Z,64.79
2023-04-25T15:38:41.892Z,64.79
2023-04-25T15:41:29.255Z,65.12
2023-04-25T15:44:18.416Z,65.38
2023-04-25T15:47:05.472Z,66.07
2023-04-25T15:49:52.295Z,66.78
2023-04-25T15:52:39.189Z,67.04
2023-04-25T15:55:26.383Z,67.27
2023-04-25T15:58:13.314Z,67.31
2023-04-25T16:01:00.070Z,67.47
2023-04-25T16:03:48.019Z,67.51
2023-04-25T16:06:34.738Z,66.83
2023-04-25T16:09:21.652Z,66.61
2023-04-25T16:12:11.383Z,65.99
2023-04-25T16:14:59.085Z,66.19
2023-04-25T16:17:45.921Z,66.35
2023-04-25T16:20:34.011Z,66.65
2023-04-25T16:23:21.036Z,66.96
2023-04-25T16:26:08.665Z,67.39
2023-04-25T16:28:55.710Z,67.56
2023-04-25T16:31:42.865Z,67.69
2023-04-25T16:34:30.072Z,68.08
2023-04-25T16:37:16.552Z,68.36
2023-04-25T16:40:03.867Z,68.27
2023-04-25T16:42:50.708Z,68.40
2023-04-25T16:45:37.566Z,68.03
2023-04-25T16:48:24.074Z,67.81
2023-04-25T16:51:10.813Z,68.06
2023-04-25T16:54:02.402Z,67.48
2023-04-25T16:56:49.252Z,66.89
2023-04-25T16:59:35.661Z,66.20
2023-04-25T17:02:22.883Z,65.85
2023-04-25T17:05:10.234Z,64.86
2023-04-25T17:07:58.502Z,64.50
2023-04-25T17:10:45.423Z,64.06
2023-04-25T17:13:33.160Z,62.67
2023-04-25T17:16:22.718Z,62.76
2023-04-25T17:19:09.362Z,60.93
2023-04-25T17:21:55.833Z,61.09
2023-04-25T17:24:43.182Z,60.79
2023-04-25T17:27:29.876Z,60.50
2023-04-25T17:30:16.913Z,59.85
2023-04-25T17:33:04.040Z,59.40
2023-04-25T17:35:51.196Z,59.64
2023-04-25T17:38:40.914Z,59.14
2023-04-25T17:41:28.767Z,58.13
2023-04-25T17:44:16.316Z,58.10
2023-04-25T17:47:06.601Z,58.63
2023-04-25T17:49:57.063Z,57.77
2023-04-25T17:52:44.896Z,57.77
2023-04-25T17:55:33.995Z,57.48
2023-04-25T17:58:21.562Z,57.27
2023-04-25T18:01:09.725Z,57.59
2023-04-25T18:03:56.734Z,57.89
2023-04-25T18:06:43.608Z,57.88
2023-04-25T18:09:33.722Z,57.17
2023-04-25T18:12:20.588Z,57.00
2023-04-25T18:15:08.727Z,57.17
2023-04-25T18:17:57.336Z,57.24
2023-04-25T18:20:45.375Z,57.05
2023-04-25T18:23:33.387Z,57.35
2023-04-25T18:26:20.630Z,57.20
2023-04-25T18:29:12.088Z,57.20
2023-04-25T18:32:01.740Z,57.81
2023-04-25T18:34:49.749Z,58.25
2023-04-25T18:37:36.803Z,58.24
2023-04-25T18:40:23.673Z,58.36
2023-04-25T18:43:11.104Z,58.75
2023-04-25T18:45:58.235Z,58.78
2023-04-25T18:48:46.652Z,58.81
2023-04-25T18:51:33.139Z,58.55
2023-04-25T18:54:20.177Z,58.48
2023-04-25T18:57:06.999Z,58.95
2023-04-25T18:59:53.769Z,58.80
2023-04-25T19:02:41.106Z,58.72
2023-04-25T19:05:33.955Z,58.97
2023-04-25T19:08:21.140Z,59.12
2023-04-25T19:11:20.420Z,59.48
2023-04-25T19:14:08.486Z,59.84
2023-04-25T19:16:58.510Z,59.67
2023-04-25T19:19:50.089Z,60.01
2023-04-25T19:22:37.019Z,60.33
2023-04-25T19:25:25.247Z,60.70
2023-04-25T19:28:13.507Z,61.07
2023-04-25T19:31:00.871Z,61.10
2023-04-25T19:33:47.272Z,61.25
2023-04-25T19:36:38.424Z,61.35
2023-04-25T19:39:25.063Z,61.50
2023-04-25T19:42:13.546Z,61.74
2023-04-25T19:45:00.112Z,61.84
2023-04-25T19:47:47.608Z,62.33
2023-04-25T19:50:34.446Z,62.30
2023-04-25T19:53:20.888Z,62.65
2023-04-25T19:56:09.078Z,62.84
2023-04-25T19:58:58.973Z,62.75
2023-04-25T20:01:49.303Z,62.75
2023-04-25T20:04:38.043Z,62.89
2023-04-25T20:07:24.848Z,63.33
2023-04-25T20:10:15.803Z,63.31
2023-04-25T20:13:02.428Z,63.65
2023-04-25T20:15:49.781Z,63.63
2023-04-25T20:18:36.714Z,63.47
2023-04-25T20:21:23.503Z,63.73
2023-04-25T20:24:11.319Z,63.96
2023-04-25T20:26:58.337Z,64.03
2023-04-25T20:29:45.150Z,64.23
2023-04-25T20:32:34.051Z,64.40
2023-04-25T20:35:22.376Z,64.33
2023-04-25T20:38:09.783Z,64.49
2023-04-25T20:40:57.933Z,64.49
2023-04-25T20:43:46.696Z,64.78
2023-04-25T20:46:35.755Z,64.80
2023-04-25T20:49:22.808Z,65.01
2023-04-25T20:52:09.779Z,64.76
2023-04-25T20:54:56.399Z,64.97
2023-04-25T20:57:42.872Z,64.87
2023-04-25T21:00:33.745Z,65.02
2023-04-25T21:03:20.301Z,65.28
2023-04-25T21:06:08.236Z,65.43
2023-04-25T21:08:54.964Z,65.29
2023-04-25T21:11:42.114Z,65.28
2023-04-25T21:14:28.619Z,65.28
2023-04-25T21:17:17.282Z,65.32
2023-04-25T21:20:09.696Z,65.30
2023-04-25T21:22:56.458Z,65.34
2023-04-25T21:25:42.986Z,65.58
2023-04-25T21:28:29.245Z,65.55
2023-04-25T21:31:15.744Z,65.89
2023-04-25T21:34:02.642Z,65.69
2023-04-25T21:36:50.411Z,65.78
2023-04-25T21:39:37.026Z,65.93
2023-04-25T21:42:23.609Z,65.92
2023-04-25T21:45:12.485Z,66.38
2023-04-25T21:47:59.102Z,66.50
2023-04-25T21:50:47.102Z,66.60
2023-04-25T21:53:33.457Z,66.78
2023-04-25T21:56:21.053Z,66.75
2023-04-25T21:59:07.659Z,66.75
2023-04-25T22:01:54.614Z,67.04
2023-04-25T22:04:47.422Z,66.91
2023-04-25T22:07:33.931Z,66.79
2023-04-25T22:10:21.545Z,67.21
2023-04-25T22:13:07.985Z,67.10
2023-04-25T22:15:54.346Z,66.88
2023-04-25T22:18:41.588Z,66.98
2023-04-25T22:21:28.090Z,67.10
2023-04-25T22:24:15.141Z,67.19
2023-04-25T22:27:02.472Z,67.50
2023-04-25T22:29:49.335Z,67.64
2023-04-25T22:32:36.518Z,68.00
2023-04-25T22:35:23.227Z,67.92
2023-04-25T22:38:11.467Z,68.41
2023-04-25T22:40:57.918Z,68.61
2023-04-25T22:43:44.246Z,68.51
2023-04-25T22:46:31.084Z,68.95
2023-04-25T22:49:17.592Z,69.00
2023-04-25T22:52:06.861Z,68.90
2023-04-25T22:54:53.609Z,69.17
2023-04-25T22:57:40.811Z,69.31
2023-04-25T23:00:29.708Z,69.28
2023-04-25T23:03:16.265Z,69.70
2023-04-25T23:06:03.323Z,69.56
2023-04-25T23:08:50.494Z,69.73
2023-04-25T23:11:38.598Z,69.62
2023-04-25T23:14:25.503Z,70.00
2023-04-25T23:17:12.059Z,69.99
2023-04-25T23:19:58.820Z,70.17
2023-04-25T23:22:44.788Z,70.32
2023-04-25T23:25:32.173Z,70.18
2023-04-25T23:28:19.720Z,70.32
2023-04-25T23:31:07.669Z,70.45
2023-04-25T23:33:54.253Z,70.64
2023-04-25T23:36:41.206Z,70.86
2023-04-25T23:39:28.142Z,70.89
2023-04-25T23:42:14.726Z,71.00
2023-04-25T23:45:01.231Z,71.24
2023-04-25T23:47:48.193Z,71.32
2023-04-25T23:50:35.573Z,71.61
2023-04-25T23:53:23.972Z,71.90
2023-04-25T23:56:14.460Z,71.96
2023-04-25T23:59:06.135Z,72.34
